Time;durP1;ratioP1;P1;durP2;ratioP2;P2;SDS_P1;SDS_P2;PMS_P1;PMS_P2;Temp;Humidity;BMP_temperature;BMP_pressure;BME280_temperature;BME280_humidity;BME280_pressure;Samples;Min_cycle;Max_cycle;Signal;HPM_P1;HPM_P2
2021/06/07 00:00:34;;;;;;;8.80;8.00;;;17.50;99.90;;;;;;5115756;28;20187;-68
2021/06/07 00:02:59;;;;;;;8.53;7.67;;;17.40;99.90;;;;;;5115865;28;20547;-68
2021/06/07 00:05:25;;;;;;;8.20;7.33;;;17.30;99.90;;;;;;5117021;28;20192;-68
2021/06/07 00:07:51;;;;;;;9.10;8.20;;;17.20;99.90;;;;;;5117279;28;20176;-67
2021/06/07 00:10:18;;;;;;;9.37;8.10;;;17.20;99.90;;;;;;5116834;28;20599;-68
2021/06/07 00:12:45;;;;;;;8.70;7.57;;;17.30;99.90;;;;;;5117212;28;20928;-68
2021/06/07 00:15:13;;;;;;;10.37;9.37;;;17.30;99.90;;;;;;5116754;28;20568;-69
2021/06/07 00:17:39;;;;;;;8.17;7.47;;;17.50;99.90;;;;;;5116503;28;20488;-68
2021/06/07 00:20:11;;;;;;;8.37;7.53;;;17.50;99.90;;;;;;5115515;28;20455;-68
2021/06/07 00:22:38;;;;;;;8.83;8.03;;;17.40;99.90;;;;;;5116973;28;20412;-68
2021/06/07 00:25:05;;;;;;;7.90;7.20;;;17.50;99.90;;;;;;5116550;28;20796;-68
2021/06/07 00:27:31;;;;;;;9.00;7.47;;;17.40;99.90;;;;;;5115312;28;20424;-68
2021/06/07 00:29:56;;;;;;;10.30;8.87;;;17.50;99.90;;;;;;5116372;28;20404;-67
2021/06/07 00:32:22;;;;;;;9.13;8.27;;;17.30;99.90;;;;;;5116884;28;20218;-67
2021/06/07 00:34:47;;;;;;;9.27;8.43;;;17.30;99.90;;;;;;5116316;28;20176;-70
2021/06/07 00:37:13;;;;;;;8.70;7.87;;;17.20;99.90;;;;;;5116533;28;20667;-68
2021/06/07 00:39:39;;;;;;;8.97;8.10;;;17.30;99.90;;;;;;5116262;28;20207;-68
2021/06/07 00:42:05;;;;;;;9.93;8.20;;;17.30;99.90;;;;;;5116401;28;20207;-67
2021/06/07 00:44:30;;;;;;;8.67;7.87;;;17.30;99.90;;;;;;5116252;28;20648;-68
2021/06/07 00:46:56;;;;;;;9.17;8.33;;;17.30;99.90;;;;;;5114869;28;20520;-68
2021/06/07 00:49:22;;;;;;;8.80;8.00;;;17.20;99.90;;;;;;5114944;28;20175;-67
2021/06/07 00:51:47;;;;;;;13.53;9.50;;;17.20;99.90;;;;;;5114741;28;20206;-68
2021/06/07 00:54:14;;;;;;;8.07;7.27;;;17.10;99.90;;;;;;5114749;28;20176;-68
2021/06/07 00:56:40;;;;;;;8.50;7.70;;;17.10;99.90;;;;;;5116078;28;20436;-68
2021/06/07 00:59:06;;;;;;;9.37;8.40;;;17.00;99.90;;;;;;5114514;28;20459;-68
2021/06/07 01:01:31;;;;;;;9.23;8.30;;;17.10;99.90;;;;;;5114518;28;20460;-68
2021/06/07 01:03:59;;;;;;;9.23;8.33;;;17.10;99.90;;;;;;5114507;28;20401;-68
2021/06/07 01:06:26;;;;;;;10.83;8.40;;;17.00;99.90;;;;;;5115577;28;20206;-67
2021/06/07 01:08:52;;;;;;;8.97;8.13;;;16.90;99.90;;;;;;5114376;28;20946;-67
2021/06/07 01:11:19;;;;;;;8.90;8.00;;;16.80;99.90;;;;;;5115711;28;20447;-67
2021/06/07 01:13:45;;;;;;;9.53;8.50;;;16.80;99.90;;;;;;5115607;28;20171;-67
2021/06/07 01:16:11;;;;;;;9.17;8.30;;;16.80;99.90;;;;;;5114138;28;20515;-67
2021/06/07 01:18:38;;;;;;;9.10;8.20;;;16.70;99.90;;;;;;5115533;28;20463;-67
2021/06/07 01:21:07;;;;;;;8.97;8.17;;;16.70;99.90;;;;;;5115278;28;20443;-68
2021/06/07 01:23:33;;;;;;;9.20;8.30;;;16.90;99.90;;;;;;5115344;28;20435;-67
2021/06/07 01:26:01;;;;;;;9.23;8.20;;;16.90;99.90;;;;;;5113997;28;20425;-67
2021/06/07 01:28:28;;;;;;;9.17;8.23;;;16.90;99.90;;;;;;5115417;28;20769;-67
2021/06/07 01:30:55;;;;;;;8.77;7.87;;;16.80;99.90;;;;;;5115067;28;20510;-67
2021/06/07 01:33:23;;;;;;;9.63;8.73;;;16.70;99.90;;;;;;5115202;28;20400;-67
2021/06/07 01:35:51;;;;;;;9.43;8.47;;;16.60;99.90;;;;;;5114958;28;21010;-67
2021/06/07 01:38:17;;;;;;;10.10;8.73;;;16.60;99.90;;;;;;5115056;28;20402;-67
2021/06/07 01:40:49;;;;;;;9.50;8.50;;;16.60;99.90;;;;;;5114927;28;20419;-68
2021/06/07 01:43:15;;;;;;;8.80;7.90;;;16.70;99.90;;;;;;5113775;28;20420;-67
2021/06/07 01:45:44;;;;;;;9.67;8.77;;;16.80;99.90;;;;;;5114904;28;20815;-67
2021/06/07 01:48:12;;;;;;;12.23;8.00;;;16.80;99.90;;;;;;5114992;28;20405;-67
2021/06/07 01:50:38;;;;;;;10.10;9.10;;;16.80;99.90;;;;;;5114871;28;20430;-67
2021/06/07 01:53:05;;;;;;;10.17;9.10;;;16.80;99.90;;;;;;5115300;28;20416;-68
2021/06/07 01:55:41;;;;;;;10.57;9.10;;;16.80;99.90;;;;;;5114794;28;20448;-66
2021/06/07 01:58:09;;;;;;;9.77;8.77;;;16.80;99.90;;;;;;5115299;28;20466;-68
2021/06/07 02:00:46;;;;;;;9.83;8.93;;;16.60;99.90;;;;;;5114621;28;20467;-66
2021/06/07 02:03:15;;;;;;;10.17;8.63;;;16.60;99.90;;;;;;5114845;28;20397;-67
2021/06/07 02:05:43;;;;;;;8.97;8.07;;;16.60;99.90;;;;;;5113348;28;20787;-67
2021/06/07 02:08:12;;;;;;;11.83;8.90;;;16.60;99.90;;;;;;5114592;28;20414;-68
2021/06/07 02:10:43;;;;;;;9.10;8.20;;;16.50;99.90;;;;;;5114503;28;20461;-67
2021/06/07 02:13:10;;;;;;;9.20;8.30;;;16.50;99.90;;;;;;5113230;28;20412;-67
2021/06/07 02:15:37;;;;;;;12.37;9.10;;;16.60;99.90;;;;;;5113258;28;20428;-67
2021/06/07 02:18:05;;;;;;;9.87;8.87;;;16.50;99.90;;;;;;5112945;28;20478;-68
2021/06/07 02:20:31;;;;;;;9.77;8.77;;;16.40;99.90;;;;;;5112968;28;20502;-67
2021/06/07 02:22:57;;;;;;;9.73;8.73;;;16.30;99.90;;;;;;5114809;28;20412;-68
2021/06/07 02:25:23;;;;;;;10.20;9.10;;;16.20;99.90;;;;;;5114295;28;20430;-66
2021/06/07 02:27:50;;;;;;;11.63;9.60;;;16.20;99.90;;;;;;5114236;28;20669;-67
2021/06/07 02:30:28;;;;;;;9.83;8.93;;;16.20;99.90;;;;;;5114288;28;20435;-67
2021/06/07 02:32:56;;;;;;;9.57;8.57;;;16.20;99.90;;;;;;5114763;28;20555;-67
2021/06/07 02:35:23;;;;;;;11.57;10.37;;;16.20;99.90;;;;;;5114208;28;20827;-67
2021/06/07 02:37:51;;;;;;;10.07;8.33;;;16.20;99.90;;;;;;5114613;28;20412;-68
2021/06/07 02:40:21;;;;;;;11.20;10.00;;;16.10;99.90;;;;;;5114098;28;20474;-67
2021/06/07 02:42:48;;;;;;;13.87;9.90;;;16.10;99.90;;;;;;5114039;28;20412;-68
2021/06/07 02:45:17;;;;;;;10.27;9.37;;;16.10;99.90;;;;;;5114108;28;20485;-68
2021/06/07 02:47:45;;;;;;;10.50;9.40;;;16.00;99.90;;;;;;5113044;28;20515;-68
2021/06/07 02:50:12;;;;;;;10.50;9.50;;;16.10;99.90;;;;;;5114007;28;20507;-68
2021/06/07 02:52:48;;;;;;;10.80;8.63;;;16.10;99.90;;;;;;5114474;28;20423;-67
2021/06/07 02:55:20;;;;;;;10.50;8.60;;;16.00;99.90;;;;;;5113998;28;20788;-67
2021/06/07 02:57:47;;;;;;;9.70;8.70;;;16.00;99.90;;;;;;5112892;28;20507;-67
2021/06/07 03:00:18;;;;;;;10.27;9.20;;;15.90;99.90;;;;;;5113816;28;20478;-67
2021/06/07 03:02:44;;;;;;;11.10;9.90;;;15.90;99.90;;;;;;5114524;28;20461;-67
2021/06/07 03:05:10;;;;;;;10.70;9.60;;;16.00;99.90;;;;;;5113894;28;20400;-67
2021/06/07 03:07:36;;;;;;;12.73;9.80;;;16.10;99.90;;;;;;5112745;28;20420;-67
2021/06/07 03:10:04;;;;;;;10.70;9.70;;;16.20;99.90;;;;;;5112521;28;20420;-67
2021/06/07 03:12:30;;;;;;;11.97;9.67;;;16.30;99.90;;;;;;5114326;28;20519;-67
2021/06/07 03:14:55;;;;;;;10.93;9.83;;;16.40;99.90;;;;;;5113897;28;20396;-67
2021/06/07 03:17:21;;;;;;;11.07;9.97;;;16.40;99.90;;;;;;5113916;28;20280;-67
2021/06/07 03:19:47;;;;;;;9.83;8.93;;;16.40;99.90;;;;;;5113821;28;20192;-67
2021/06/07 03:22:13;;;;;;;12.03;10.70;;;16.40;99.90;;;;;;5112508;28;20210;-67
2021/06/07 03:24:38;;;;;;;10.37;9.47;;;16.30;99.90;;;;;;5113785;28;20489;-69
2021/06/07 03:27:05;;;;;;;11.10;10.00;;;16.30;99.90;;;;;;5112462;28;20459;-67
2021/06/07 03:29:30;;;;;;;10.23;9.20;;;16.40;99.90;;;;;;5113730;28;20172;-67
2021/06/07 03:31:56;;;;;;;10.53;9.53;;;16.30;99.90;;;;;;5112358;28;20804;-67
2021/06/07 03:34:22;;;;;;;10.57;9.47;;;16.30;99.90;;;;;;5113870;28;20164;-68
2021/06/07 03:36:47;;;;;;;13.60;10.20;;;16.30;99.90;;;;;;5113430;28;20219;-67
2021/06/07 03:39:13;;;;;;;10.80;9.70;;;16.30;99.90;;;;;;5113562;28;20215;-68
2021/06/07 03:41:38;;;;;;;10.53;9.50;;;16.40;99.90;;;;;;5113715;28;20683;-67
2021/06/07 03:44:04;;;;;;;12.10;10.80;;;16.40;99.90;;;;;;5112361;28;20664;-68
2021/06/07 03:46:30;;;;;;;13.60;9.90;;;16.40;99.90;;;;;;5113719;28;20200;-68
2021/06/07 03:48:55;;;;;;;11.53;10.43;;;16.40;99.90;;;;;;5113556;28;20981;-68
2021/06/07 03:51:21;;;;;;;12.97;10.60;;;16.40;99.90;;;;;;5113551;28;20203;-67
2021/06/07 03:53:46;;;;;;;12.00;10.47;;;16.50;99.90;;;;;;5112390;28;20168;-70
2021/06/07 03:56:12;;;;;;;11.43;10.37;;;16.60;99.90;;;;;;5115360;28;20211;-68
2021/06/07 03:58:37;;;;;;;11.90;10.57;;;16.60;99.90;;;;;;5115644;28;20215;-69
2021/06/07 04:01:03;;;;;;;12.73;10.63;;;16.50;99.90;;;;;;5117000;28;20203;-69
2021/06/07 04:03:29;;;;;;;11.90;10.23;;;16.50;99.90;;;;;;5117012;28;20195;-68
2021/06/07 04:05:54;;;;;;;13.43;10.60;;;16.50;99.90;;;;;;5116922;28;20216;-68
2021/06/07 04:08:20;;;;;;;12.23;10.30;;;16.50;99.90;;;;;;5116967;28;20179;-69
2021/06/07 04:10:46;;;;;;;11.60;10.40;;;16.60;99.90;;;;;;5116648;28;20648;-69
2021/06/07 04:13:13;;;;;;;11.67;9.77;;;16.70;99.90;;;;;;5115828;28;20237;-69
2021/06/07 04:15:38;;;;;;;11.40;9.57;;;16.80;99.90;;;;;;5116658;28;20431;-68
2021/06/07 04:18:04;;;;;;;12.10;10.87;;;16.80;99.90;;;;;;5116786;28;20455;-68
2021/06/07 04:20:33;;;;;;;14.83;11.37;;;17.00;99.90;;;;;;5116509;28;20223;-69
2021/06/07 04:22:59;;;;;;;11.93;10.63;;;17.10;99.90;;;;;;5117125;28;20523;-68
2021/06/07 04:25:26;;;;;;;12.90;10.00;;;17.10;99.90;;;;;;5115272;28;21040;-68
2021/06/07 04:27:53;;;;;;;11.30;9.67;;;17.10;99.90;;;;;;5116028;28;20188;-69
2021/06/07 04:30:20;;;;;;;11.20;10.20;;;17.20;99.90;;;;;;5115070;28;20507;-68
2021/06/07 04:32:47;;;;;;;12.50;11.20;;;17.30;99.90;;;;;;5116877;28;20423;-69
2021/06/07 04:35:15;;;;;;;12.17;10.97;;;17.40;99.90;;;;;;5116342;28;20423;-68
2021/06/07 04:37:54;;;;;;;12.07;10.30;;;17.60;99.90;;;;;;5116825;28;20420;-68
2021/06/07 04:40:22;;;;;;;11.37;10.23;;;17.60;99.90;;;;;;5116281;28;20456;-69
2021/06/07 04:42:48;;;;;;;10.80;9.80;;;17.80;99.90;;;;;;5116034;28;20464;-69
2021/06/07 04:45:17;;;;;;;11.23;9.60;;;17.80;99.90;;;;;;5113283;28;20428;-69
2021/06/07 04:47:43;;;;;;;12.60;10.40;;;17.90;99.90;;;;;;5116384;28;20431;-69
2021/06/07 04:50:11;;;;;;;11.27;10.10;;;18.10;99.90;;;;;;5114713;28;20412;-68
2021/06/07 04:52:56;;;;;;;11.20;10.10;;;18.20;99.90;;;;;;5114905;28;20179;-68
2021/06/07 04:55:29;;;;;;;10.97;9.97;;;18.30;99.90;;;;;;5116001;28;20463;-69
2021/06/07 04:57:55;;;;;;;10.70;9.63;;;18.50;99.90;;;;;;5116502;28;20412;-68
2021/06/07 05:00:23;;;;;;;11.50;10.30;;;18.60;99.90;;;;;;5115764;28;21009;-68
2021/06/07 05:02:49;;;;;;;10.00;9.00;;;18.80;99.90;;;;;;5115084;28;20924;-68
2021/06/07 05:05:15;;;;;;;10.67;9.30;;;18.90;99.90;;;;;;5114870;28;20776;-68
2021/06/07 05:07:41;;;;;;;10.63;9.53;;;19.00;99.90;;;;;;5116020;28;20411;-69
2021/06/07 05:10:07;;;;;;;13.37;9.80;;;19.10;99.90;;;;;;5115627;28;20445;-68
2021/06/07 05:12:33;;;;;;;10.70;9.60;;;19.20;99.90;;;;;;5115972;28;20237;-68
2021/06/07 05:15:00;;;;;;;11.67;10.47;;;19.40;99.90;;;;;;5114295;28;20903;-69
2021/06/07 05:17:26;;;;;;;11.00;9.80;;;19.40;99.90;;;;;;5115557;28;20231;-69
2021/06/07 05:19:51;;;;;;;10.57;9.20;;;19.60;99.90;;;;;;5115342;28;20453;-69
2021/06/07 05:22:17;;;;;;;10.23;9.10;;;19.70;99.90;;;;;;5115326;28;20895;-68
2021/06/07 05:24:43;;;;;;;9.50;8.57;;;19.90;99.90;;;;;;5115491;27;20641;-69
2021/06/07 05:27:10;;;;;;;9.30;8.50;;;20.10;99.90;;;;;;5111493;28;20213;-68
2021/06/07 05:29:36;;;;;;;8.87;7.90;;;20.20;99.90;;;;;;5094915;28;20257;-69
2021/06/07 05:32:01;;;;;;;8.33;7.53;;;20.50;99.90;;;;;;5101169;27;20488;-68
2021/06/07 05:34:27;;;;;;;8.80;7.90;;;20.60;99.90;;;;;;5114702;28;20178;-69
2021/06/07 05:36:52;;;;;;;8.47;7.77;;;20.70;99.90;;;;;;5112472;27;20202;-69
2021/06/07 05:39:19;;;;;;;9.53;8.57;;;20.90;99.90;;;;;;5113716;28;20628;-69
2021/06/07 05:41:48;;;;;;;10.43;8.43;;;20.90;99.90;;;;;;5108672;28;20208;-69
2021/06/07 05:44:14;;;;;;;8.83;7.40;;;20.90;99.90;;;;;;5106318;28;20445;-68
2021/06/07 05:46:40;;;;;;;8.20;7.30;;;21.10;99.90;;;;;;5113523;28;20504;-68
2021/06/07 05:49:06;;;;;;;8.90;8.00;;;21.20;99.90;;;;;;5114892;28;20176;-69
2021/06/07 05:51:32;;;;;;;8.50;7.60;;;21.20;99.90;;;;;;5114911;28;20607;-68
2021/06/07 05:53:58;;;;;;;9.00;8.10;;;21.20;99.90;;;;;;5114825;28;20791;-69
2021/06/07 05:56:24;;;;;;;10.53;8.20;;;21.30;99.90;;;;;;5112805;28;20450;-69
2021/06/07 05:58:51;;;;;;;8.50;7.77;;;21.30;99.90;;;;;;5114442;28;20730;-69
2021/06/07 06:01:16;;;;;;;12.23;7.70;;;21.30;99.90;;;;;;5114453;28;20445;-68
2021/06/07 06:03:42;;;;;;;8.97;8.17;;;21.70;99.90;;;;;;5112942;28;20499;-69
2021/06/07 06:06:08;;;;;;;8.67;7.87;;;21.70;99.90;;;;;;5108873;27;20215;-68
2021/06/07 06:08:33;;;;;;;10.33;9.23;;;21.90;99.90;;;;;;5112915;28;20186;-68
2021/06/07 06:10:59;;;;;;;9.00;8.20;;;21.90;99.90;;;;;;5112494;28;20195;-68
2021/06/07 06:13:24;;;;;;;9.50;8.10;;;22.10;99.90;;;;;;5110701;28;20263;-69
2021/06/07 06:15:50;;;;;;;9.07;8.27;;;21.80;99.90;;;;;;5107996;28;20227;-68
2021/06/07 06:18:15;;;;;;;10.00;9.00;;;21.90;99.90;;;;;;5105942;28;20230;-67
2021/06/07 06:20:41;;;;;;;11.87;9.47;;;22.20;99.90;;;;;;5103876;28;20230;-68
2021/06/07 06:23:07;;;;;;;12.37;9.10;;;22.60;99.90;;;;;;5108072;28;20223;-68
2021/06/07 06:25:32;;;;;;;14.23;9.57;;;22.60;99.90;;;;;;5108849;28;20608;-68
2021/06/07 06:27:59;;;;;;;8.30;7.50;;;22.60;99.90;;;;;;5109819;28;20529;-67
2021/06/07 06:30:27;;;;;;;9.77;8.77;;;22.80;99.90;;;;;;5109915;28;20231;-67
2021/06/07 06:32:56;;;;;;;8.03;7.33;;;22.80;99.90;;;;;;5113703;28;20436;-67
2021/06/07 06:35:22;;;;;;;9.50;7.50;;;23.10;99.90;;;;;;5110843;28;20435;-67
2021/06/07 06:37:49;;;;;;;9.70;8.40;;;23.30;99.90;;;;;;5109919;28;20428;-67
2021/06/07 06:40:36;;;;;;;8.10;7.40;;;23.50;99.90;;;;;;5107003;28;20503;-67
2021/06/07 06:43:04;;;;;;;7.73;7.13;;;23.20;99.90;;;;;;5109930;28;20427;-68
2021/06/07 06:45:30;;;;;;;8.63;7.67;;;23.50;99.90;;;;;;5112172;28;20432;-68
2021/06/07 06:47:57;;;;;;;7.50;6.87;;;23.60;99.90;;;;;;5109624;28;20444;-68
2021/06/07 06:50:33;;;;;;;7.07;6.37;;;23.60;99.90;;;;;;5109504;28;20443;-68
2021/06/07 06:53:06;;;;;;;7.20;6.57;;;23.90;99.90;;;;;;5113751;28;20811;-68
2021/06/07 06:55:32;;;;;;;8.07;7.27;;;23.90;99.90;;;;;;5127378;28;20483;-69
2021/06/07 06:57:58;;;;;;;9.43;7.10;;;23.70;99.90;;;;;;5113990;28;20481;-68
2021/06/07 07:00:23;;;;;;;7.40;6.23;;;24.00;99.90;;;;;;5113596;28;20475;-68
2021/06/07 07:02:50;;;;;;;7.00;6.40;;;24.20;99.90;;;;;;5112100;28;20191;-68
2021/06/07 07:05:16;;;;;;;6.67;6.07;;;24.40;99.90;;;;;;5109891;28;20269;-68
2021/06/07 07:07:42;;;;;;;7.67;6.67;;;24.60;99.90;;;;;;5112363;28;20428;-68
2021/06/07 07:10:10;;;;;;;9.20;7.23;;;24.60;99.90;;;;;;5112262;28;20530;-68
2021/06/07 07:12:37;;;;;;;8.17;6.83;;;24.60;99.90;;;;;;5107219;28;20553;-68
2021/06/07 07:15:04;;;;;;;11.93;6.50;;;24.90;99.90;;;;;;5111870;28;20897;-68
2021/06/07 07:17:30;;;;;;;7.30;5.90;;;24.90;99.90;;;;;;5111497;28;20488;-69
2021/06/07 07:19:55;;;;;;;7.30;6.03;;;24.80;99.90;;;;;;5109562;28;20805;-68
2021/06/07 07:22:21;;;;;;;6.60;6.10;;;24.80;99.90;;;;;;5101186;28;20191;-68
2021/06/07 07:24:47;;;;;;;6.70;6.00;;;24.90;99.90;;;;;;5108475;28;20181;-68
2021/06/07 07:27:15;;;;;;;7.07;6.37;;;24.90;99.90;;;;;;5107724;28;20818;-69
2021/06/07 07:29:42;;;;;;;6.30;5.80;;;24.80;99.90;;;;;;5107618;28;20542;-68
2021/06/07 07:32:07;;;;;;;7.27;6.57;;;24.80;99.90;;;;;;5096861;28;20457;-69
2021/06/07 07:34:34;;;;;;;6.80;6.20;;;24.80;99.90;;;;;;5109514;28;20419;-68
2021/06/07 07:37:00;;;;;;;7.37;6.17;;;24.80;99.90;;;;;;5111952;28;20196;-68
2021/06/07 07:39:26;;;;;;;6.67;6.07;;;24.80;99.90;;;;;;5103981;28;20451;-69
2021/06/07 07:41:53;;;;;;;6.90;6.30;;;24.90;99.90;;;;;;5117446;28;20466;-68
2021/06/07 07:44:19;;;;;;;6.83;6.23;;;25.00;99.90;;;;;;5116906;28;20901;-69
2021/06/07 07:46:45;;;;;;;6.10;5.47;;;25.20;99.90;;;;;;5115590;28;20941;-69
2021/06/07 07:49:11;;;;;;;7.40;5.90;;;25.20;99.90;;;;;;5114354;28;20407;-69
2021/06/07 07:51:38;;;;;;;5.50;5.10;;;25.20;99.90;;;;;;5113510;28;20299;-68
2021/06/07 07:54:04;;;;;;;5.60;5.10;;;25.20;99.90;;;;;;5115205;28;20410;-68
2021/06/07 07:56:31;;;;;;;5.80;5.27;;;25.30;99.90;;;;;;5114143;27;20477;-68
2021/06/07 07:58:56;;;;;;;6.03;5.30;;;25.40;99.90;;;;;;5114531;28;20458;-69
2021/06/07 08:01:22;;;;;;;5.27;4.87;;;25.50;99.90;;;;;;5115175;28;20452;-68
2021/06/07 08:03:47;;;;;;;7.90;5.03;;;25.50;99.90;;;;;;5114538;28;20185;-70
2021/06/07 08:06:13;;;;;;;6.20;5.00;;;25.50;99.90;;;;;;5114646;28;20205;-69
2021/06/07 08:08:39;;;;;;;5.37;4.57;;;25.50;99.90;;;;;;5115964;28;20268;-68
2021/06/07 08:11:04;;;;;;;4.87;4.47;;;25.60;99.90;;;;;;5114205;27;20668;-69
2021/06/07 08:13:30;;;;;;;4.53;4.00;;;25.60;99.90;;;;;;5115159;28;20192;-69
2021/06/07 08:15:56;;;;;;;4.50;4.10;;;25.60;99.90;;;;;;5112562;28;20210;-68
2021/06/07 08:18:21;;;;;;;5.33;4.33;;;25.70;99.90;;;;;;5110209;28;20282;-68
2021/06/07 08:20:47;;;;;;;14.57;4.23;;;25.80;99.90;;;;;;5100165;28;20217;-68
2021/06/07 08:23:13;;;;;;;4.80;4.13;;;25.80;99.90;;;;;;5111322;28;20237;-69
2021/06/07 08:25:38;;;;;;;3.87;3.53;;;25.70;99.90;;;;;;5107473;28;20725;-68
2021/06/07 08:28:05;;;;;;;9.67;4.70;;;25.80;99.90;;;;;;5113619;28;20666;-69
2021/06/07 08:30:33;;;;;;;5.10;4.10;;;25.90;99.90;;;;;;5112880;28;20202;-69
2021/06/07 08:32:58;;;;;;;4.67;4.27;;;25.80;99.90;;;;;;5114506;28;20514;-69
2021/06/07 08:35:24;;;;;;;4.47;4.13;;;26.00;99.90;;;;;;5104996;28;20996;-69
2021/06/07 08:37:50;;;;;;;4.17;3.87;;;26.10;99.90;;;;;;5108708;28;20179;-68
2021/06/07 08:40:16;;;;;;;4.00;3.60;;;26.10;99.90;;;;;;5110611;28;20228;-69
2021/06/07 08:42:43;;;;;;;4.10;3.80;;;26.30;99.90;;;;;;5112293;28;20198;-68
2021/06/07 08:45:12;;;;;;;4.40;4.00;;;26.20;99.90;;;;;;5112102;28;20419;-68
2021/06/07 08:47:42;;;;;;;4.57;4.17;;;26.30;99.90;;;;;;5112296;28;20429;-68
2021/06/07 08:50:09;;;;;;;3.90;3.60;;;26.40;99.90;;;;;;5103550;28;20506;-68
2021/06/07 08:52:35;;;;;;;4.97;4.57;;;26.60;99.90;;;;;;5111185;28;20792;-69
2021/06/07 08:55:04;;;;;;;4.50;4.10;;;26.60;99.90;;;;;;5112413;28;20423;-68
2021/06/07 08:57:29;;;;;;;5.30;4.40;;;26.70;99.90;;;;;;5113954;28;20670;-68
2021/06/07 08:59:55;;;;;;;4.30;4.00;;;26.70;99.90;;;;;;5112755;28;20460;-69
2021/06/07 09:02:34;;;;;;;4.93;4.43;;;26.70;99.60;;;;;;5114713;28;20263;-68
2021/06/07 09:05:04;;;;;;;4.27;3.87;;;26.60;99.70;;;;;;5115653;28;20179;-68
2021/06/07 09:07:29;;;;;;;6.00;4.13;;;26.50;99.50;;;;;;5114140;28;20440;-68
2021/06/07 09:10:10;;;;;;;4.53;4.10;;;26.60;99.90;;;;;;5115447;28;20404;-69
2021/06/07 09:12:36;;;;;;;4.23;3.93;;;26.70;99.20;;;;;;5115197;28;20188;-68
2021/06/07 09:15:03;;;;;;;3.90;3.60;;;26.70;98.60;;;;;;5114183;28;20422;-68
2021/06/07 09:17:29;;;;;;;5.47;4.97;;;26.70;98.80;;;;;;5112594;28;20532;-68
2021/06/07 09:20:18;;;;;;;6.70;4.30;;;26.60;98.80;;;;;;5113692;28;20456;-68
2021/06/07 09:22:50;;;;;;;4.80;4.43;;;26.60;98.60;;;;;;5106175;28;20232;-69
2021/06/07 09:25:19;;;;;;;4.07;3.60;;;26.50;99.50;;;;;;5111149;28;20526;-68
2021/06/07 09:28:11;;;;;;;4.37;3.97;;;26.80;98.50;;;;;;5113217;28;20502;-69
2021/06/07 09:30:42;;;;;;;4.90;4.30;;;26.70;98.50;;;;;;5110944;28;20456;-68
2021/06/07 09:33:40;;;;;;;5.10;4.60;;;26.70;98.80;;;;;;5109016;28;20423;-69
2021/06/07 09:36:26;;;;;;;4.60;4.30;;;27.10;98.40;;;;;;5098722;28;20463;-69
2021/06/07 09:38:59;;;;;;;4.27;3.90;;;27.40;98.30;;;;;;5095559;28;20444;-69
2021/06/07 09:41:28;;;;;;;4.50;4.07;;;27.50;97.50;;;;;;5127771;27;20583;-69
2021/06/07 09:44:02;;;;;;;4.53;3.33;;;27.50;97.10;;;;;;5110919;28;20404;-69
2021/06/07 09:46:30;;;;;;;4.10;3.70;;;27.60;97.00;;;;;;5106350;28;20489;-69
2021/06/07 09:49:10;;;;;;;4.57;4.17;;;27.60;96.10;;;;;;5093538;28;20922;-69
2021/06/07 09:51:38;;;;;;;5.07;4.10;;;27.80;96.40;;;;;;5105383;28;20968;-69
2021/06/07 09:54:04;;;;;;;5.40;3.77;;;27.70;96.40;;;;;;5107358;28;20936;-69
2021/06/07 09:56:30;;;;;;;5.50;3.90;;;27.70;95.70;;;;;;5111895;28;20460;-68
2021/06/07 09:58:56;;;;;;;4.50;4.10;;;27.70;94.60;;;;;;5109917;28;20474;-70
2021/06/07 10:01:27;;;;;;;4.03;3.73;;;27.90;95.70;;;;;;5109369;28;20230;-68
2021/06/07 10:03:55;;;;;;;4.20;3.80;;;28.10;95.30;;;;;;5109389;28;20386;-68
2021/06/07 10:06:30;;;;;;;5.20;4.30;;;28.10;96.40;;;;;;5110108;28;20452;-68
2021/06/07 10:09:00;;;;;;;5.47;4.20;;;28.20;95.80;;;;;;5110262;28;20969;-68
2021/06/07 10:11:32;;;;;;;4.57;4.13;;;28.00;95.30;;;;;;5110132;28;20500;-68
2021/06/07 10:14:20;;;;;;;4.00;3.70;;;28.20;95.10;;;;;;5110395;27;20420;-66
2021/06/07 10:17:01;;;;;;;3.97;3.67;;;28.40;94.90;;;;;;5107902;27;20779;-66
2021/06/07 10:22:12;;;;;;;3.90;3.60;;;28.30;94.70;;;;;;5111432;28;20439;-66
2021/06/07 10:24:39;;;;;;;5.00;3.63;;;28.50;94.70;;;;;;5109578;28;20444;-67
2021/06/07 10:27:05;;;;;;;3.80;3.50;;;28.50;94.30;;;;;;5110873;28;20875;-68
2021/06/07 10:29:33;;;;;;;4.50;4.10;;;28.60;93.60;;;;;;5109571;28;20435;-69
2021/06/07 10:32:09;;;;;;;4.70;4.10;;;28.60;93.70;;;;;;5108883;28;20550;-68
2021/06/07 10:34:50;;;;;;;4.50;4.10;;;28.70;93.80;;;;;;5110529;28;20787;-68
2021/06/07 10:37:16;;;;;;;4.10;3.80;;;28.80;93.50;;;;;;5095097;28;20435;-68
2021/06/07 10:39:42;;;;;;;4.30;3.93;;;29.00;93.60;;;;;;5108366;28;21166;-69
2021/06/07 10:42:07;;;;;;;3.90;3.57;;;28.90;92.80;;;;;;5106866;28;20463;-68
2021/06/07 10:44:42;;;;;;;5.07;3.87;;;28.80;92.70;;;;;;5108185;28;20191;-68
2021/06/07 10:47:13;;;;;;;4.37;3.77;;;28.70;92.40;;;;;;5106822;28;20234;-68
2021/06/07 10:49:41;;;;;;;3.80;3.50;;;28.50;91.80;;;;;;5109743;28;20420;-68
2021/06/07 10:52:20;;;;;;;3.30;3.10;;;28.30;89.50;;;;;;5105395;28;20467;-69
2021/06/07 10:55:08;;;;;;;4.20;2.87;;;28.10;89.00;;;;;;5103761;28;20416;-68
2021/06/07 10:57:39;;;;;;;4.33;3.60;;;28.20;86.20;;;;;;5110487;28;20421;-68
2021/06/07 11:00:04;;;;;;;6.50;3.20;;;28.50;87.90;;;;;;5110255;28;20521;-68
2021/06/07 11:02:37;;;;;;;3.37;3.17;;;28.80;91.10;;;;;;5111143;28;20463;-68
2021/06/07 11:05:09;;;;;;;3.67;3.23;;;28.70;91.10;;;;;;5111491;28;20549;-68
2021/06/07 11:07:36;;;;;;;3.00;2.70;;;28.90;90.70;;;;;;5113890;28;20925;-68
2021/06/07 11:10:19;;;;;;;3.33;3.13;;;29.20;90.50;;;;;;5112618;27;20424;-67
2021/06/07 11:12:50;;;;;;;4.53;3.10;;;29.20;90.70;;;;;;5113995;28;20768;-68
2021/06/07 11:15:29;;;;;;;3.57;3.00;;;29.00;90.00;;;;;;5109821;28;20432;-68
2021/06/07 11:18:21;;;;;;;3.73;3.20;;;29.20;90.20;;;;;;5111235;28;20494;-68
2021/06/07 11:20:47;;;;;;;3.60;3.30;;;29.40;86.50;;;;;;5111381;28;20499;-68
2021/06/07 11:23:18;;;;;;;3.90;3.60;;;29.40;90.20;;;;;;5112970;28;20420;-68
2021/06/07 11:25:46;;;;;;;3.97;3.63;;;29.30;90.20;;;;;;5110919;27;20574;-69
2021/06/07 11:28:38;;;;;;;3.97;3.50;;;29.20;88.60;;;;;;5109241;28;20474;-68
2021/06/07 11:31:06;;;;;;;3.90;3.60;;;29.50;90.10;;;;;;5117103;27;20451;-69
2021/06/07 11:33:51;;;;;;;5.20;4.10;;;29.40;89.80;;;;;;5117478;27;20559;-69
2021/06/07 11:36:44;;;;;;;4.43;3.43;;;29.50;90.00;;;;;;5126564;27;20459;-68
2021/06/07 11:39:15;;;;;;;4.10;3.80;;;29.50;88.60;;;;;;5113930;28;20801;-68
2021/06/07 11:41:45;;;;;;;3.80;3.50;;;29.60;88.10;;;;;;5124051;27;20468;-68
2021/06/07 11:44:11;;;;;;;3.83;3.57;;;29.60;89.10;;;;;;5120896;27;20419;-69
2021/06/07 11:46:40;;;;;;;5.87;3.93;;;29.50;90.00;;;;;;5124699;27;20453;-68
2021/06/07 11:49:07;;;;;;;5.57;4.03;;;29.40;88.30;;;;;;5127872;27;20438;-69
2021/06/07 11:51:35;;;;;;;4.03;3.53;;;29.60;89.40;;;;;;5133439;27;20801;-68
2021/06/07 11:54:26;;;;;;;4.60;4.20;;;29.40;89.20;;;;;;5113900;27;20452;-69
2021/06/07 11:57:04;;;;;;;4.97;4.57;;;29.60;88.90;;;;;;5111969;27;20447;-68
2021/06/07 11:59:31;;;;;;;4.47;4.07;;;29.60;88.70;;;;;;5131704;27;20497;-68
2021/06/07 12:01:58;;;;;;;5.33;4.07;;;29.50;89.00;;;;;;5118933;27;20880;-68
2021/06/07 12:04:30;;;;;;;4.73;4.00;;;29.20;89.60;;;;;;5113103;27;20432;-69
2021/06/07 12:07:07;;;;;;;8.53;3.80;;;29.30;89.30;;;;;;5126189;27;20446;-68
2021/06/07 12:09:35;;;;;;;4.30;3.90;;;29.10;90.40;;;;;;5131801;27;20464;-69
2021/06/07 12:12:01;;;;;;;4.00;3.70;;;28.80;87.80;;;;;;5129640;27;20475;-69
2021/06/07 12:14:39;;;;;;;3.77;3.47;;;28.80;89.80;;;;;;5132227;27;20493;-68
2021/06/07 12:17:08;;;;;;;4.20;3.80;;;29.10;89.10;;;;;;5122955;27;20518;-68
2021/06/07 12:19:37;;;;;;;4.50;4.20;;;29.10;89.40;;;;;;5133414;27;20474;-69
2021/06/07 12:22:04;;;;;;;4.17;3.77;;;29.10;88.70;;;;;;5107187;27;20508;-69
2021/06/07 12:24:31;;;;;;;4.60;4.20;;;29.10;89.10;;;;;;5116567;27;20891;-69
2021/06/07 12:29:42;;;;;;;4.97;3.60;;;29.10;89.20;;;;;;5130675;27;21030;-68
2021/06/07 12:32:12;;;;;;;4.97;4.30;;;29.10;89.10;;;;;;5134797;27;20507;-68
2021/06/07 12:35:00;;;;;;;4.17;3.87;;;29.00;89.10;;;;;;5136923;27;20443;-69
2021/06/07 12:37:28;;;;;;;4.30;3.90;;;28.90;89.40;;;;;;5115228;27;20441;-69
2021/06/07 12:40:29;;;;;;;3.97;3.67;;;29.00;88.80;;;;;;5116177;27;20469;-68
2021/06/07 12:43:12;;;;;;;4.10;3.80;;;29.10;88.50;;;;;;5127734;27;20465;-69
2021/06/07 12:45:45;;;;;;;4.40;4.00;;;29.20;89.40;;;;;;5127826;27;20489;-68
2021/06/07 12:48:27;;;;;;;4.10;3.77;;;29.30;88.60;;;;;;5132885;27;20454;-68
2021/06/07 12:50:54;;;;;;;5.27;3.83;;;29.20;88.30;;;;;;5130381;27;20963;-68
2021/06/07 12:53:23;;;;;;;4.00;3.70;;;29.10;89.60;;;;;;5128483;27;20420;-69
2021/06/07 12:55:50;;;;;;;4.43;3.90;;;29.00;89.30;;;;;;5123377;27;20451;-69